createdAt,value
2018-01-13T00:00:45.947Z,67.24
2018-01-13T00:03:18.685Z,67.43
2018-01-13T00:05:52.118Z,66.85
2018-01-13T00:08:24.680Z,66.56
2018-01-13T00:10:57.878Z,66.03
2018-01-13T00:13:30.961Z,67.43
2018-01-13T00:16:03.683Z,67.63
2018-01-13T00:18:36.426Z,67.08
2018-01-13T00:21:08.938Z,67.91
2018-01-13T00:23:41.501Z,67.75
2018-01-13T00:26:14.162Z,68.33
2018-01-13T00:28:46.895Z,67.01
2018-01-13T00:31:20.407Z,67.53
2018-01-13T00:33:53.069Z,67.56
2018-01-13T00:36:25.743Z,69.09
2018-01-13T00:38:59.159Z,68.32
2018-01-13T00:41:32.103Z,67.15
2018-01-13T00:44:04.957Z,66.73
2018-01-13T00:46:38.085Z,66.68
2018-01-13T00:49:11.618Z,66.35
2018-01-13T00:51:44.257Z,68.13
2018-01-13T00:54:16.775Z,67.04
2018-01-13T00:56:49.937Z,66.52
2018-01-13T00:59:23.585Z,65.91
2018-01-13T01:01:56.315Z,66.53
2018-01-13T01:04:29.105Z,66.97
2018-01-13T01:07:02.653Z,67.50
2018-01-13T01:09:35.384Z,67.19
2018-01-13T01:12:08.010Z,68.24
2018-01-13T01:14:40.541Z,67.93
2018-01-13T01:17:13.389Z,67.86
2018-01-13T01:19:45.923Z,68.72
2018-01-13T01:22:18.593Z,67.46
2018-01-13T01:24:51.138Z,67.25
2018-01-13T01:27:23.794Z,66.97
2018-01-13T01:29:56.288Z,67.48
2018-01-13T01:32:30.057Z,66.46
2018-01-13T01:35:02.691Z,66.55
2018-01-13T01:37:35.339Z,66.47
2018-01-13T01:40:08.975Z,66.44
2018-01-13T01:42:41.500Z,68.19
2018-01-13T01:45:14.228Z,67.36
2018-01-13T01:47:47.178Z,67.76
2018-01-13T01:50:20.733Z,69.69
2018-01-13T01:52:53.501Z,68.29
2018-01-13T01:55:25.986Z,67.83
2018-01-13T01:57:59.819Z,67.27
2018-01-13T02:00:32.661Z,67.08
2018-01-13T02:03:05.558Z,66.52
2018-01-13T02:05:38.181Z,66.07
2018-01-13T02:08:10.958Z,68.35
2018-01-13T02:10:43.700Z,67.62
2018-01-13T02:13:16.569Z,66.86
2018-01-13T02:15:49.402Z,66.61
2018-01-13T02:18:22.147Z,68.03
2018-01-13T02:20:54.886Z,66.73
2018-01-13T02:23:28.473Z,67.18
2018-01-13T02:26:01.199Z,66.92
2018-01-13T02:28:33.759Z,66.48
2018-01-13T02:31:06.299Z,66.51
2018-01-13T02:33:38.926Z,66.35
2018-01-13T02:36:11.456Z,66.38
2018-01-13T02:38:45.023Z,66.29
2018-01-13T02:41:17.665Z,66.03
2018-01-13T02:43:50.186Z,66.51
2018-01-13T02:46:22.833Z,66.04
2018-01-13T02:48:56.493Z,66.58
2018-01-13T02:51:30.131Z,66.39
2018-01-13T02:54:02.708Z,67.48
2018-01-13T02:56:35.442Z,68.88
2018-01-13T02:59:07.980Z,66.71
2018-01-13T03:01:41.719Z,66.73
2018-01-13T03:04:14.588Z,67.08
2018-01-13T03:09:26.154Z,67.19
2018-01-13T03:11:59.800Z,66.73
2018-01-13T03:14:32.552Z,66.52
2018-01-13T03:17:05.087Z,67.21
2018-01-13T03:22:17.361Z,67.18
2018-01-13T03:24:49.931Z,66.96
2018-01-13T03:27:22.561Z,68.24
2018-01-13T03:29:55.092Z,67.70
2018-01-13T03:32:28.114Z,67.88
2018-01-13T03:35:01.397Z,68.36
2018-01-13T03:37:33.924Z,66.97
2018-01-13T03:40:06.565Z,68.10
2018-01-13T03:42:39.194Z,68.39
2018-01-13T03:45:12.949Z,68.02
2018-01-13T03:47:46.663Z,67.80
2018-01-13T03:50:19.294Z,67.21
2018-01-13T03:52:52.050Z,68.08
2018-01-13T03:55:24.712Z,67.33
2018-01-13T03:57:58.794Z,67.04
2018-01-13T04:00:31.862Z,67.77
2018-01-13T04:03:04.523Z,68.21
2018-01-13T04:05:38.042Z,68.46
2018-01-13T04:08:11.703Z,68.13
2018-01-13T04:10:44.563Z,67.05
2018-01-13T04:13:17.727Z,67.85
2018-01-13T04:15:50.458Z,68.49
2018-01-13T04:18:23.332Z,67.22
2018-01-13T04:20:56.263Z,67.79
2018-01-13T04:23:29.848Z,67.14
2018-01-13T04:26:02.459Z,68.14
2018-01-13T04:28:35.232Z,66.39
2018-01-13T04:31:08.860Z,67.67
2018-01-13T04:33:41.603Z,66.86
2018-01-13T04:36:14.249Z,67.21
2018-01-13T04:38:47.119Z,67.00
2018-01-13T04:41:19.748Z,66.66
2018-01-13T04:43:52.664Z,66.95
2018-01-13T04:46:25.176Z,67.42
2018-01-13T04:48:59.641Z,67.98
2018-01-13T04:51:32.289Z,67.78
2018-01-13T04:54:05.131Z,68.17
2018-01-13T04:56:37.778Z,66.67
2018-01-13T04:59:11.417Z,66.68
2018-01-13T05:01:44.246Z,68.13
2018-01-13T05:04:16.788Z,66.61
2018-01-13T05:06:49.632Z,66.69
2018-01-13T05:09:23.281Z,67.17
2018-01-13T05:11:56.973Z,66.88
2018-01-13T05:14:29.494Z,66.60
2018-01-13T05:17:02.025Z,67.87
2018-01-13T05:19:34.696Z,68.28
2018-01-13T05:22:07.443Z,67.82
2018-01-13T05:24:41.035Z,66.94
2018-01-13T05:27:14.066Z,67.04
2018-01-13T05:29:46.803Z,67.81
2018-01-13T05:32:19.311Z,70.58
2018-01-13T05:34:52.267Z,68.33
2018-01-13T05:37:25.158Z,67.27
2018-01-13T05:39:58.324Z,67.12
2018-01-13T05:42:31.639Z,67.42
2018-01-13T05:45:04.308Z,67.86
2018-01-13T05:47:37.148Z,67.88
2018-01-13T05:50:09.810Z,67.83
2018-01-13T05:52:42.756Z,67.81
2018-01-13T05:55:15.330Z,67.16
2018-01-13T05:57:47.978Z,67.23
2018-01-13T06:00:20.536Z,67.58
2018-01-13T06:02:54.169Z,68.61
2018-01-13T06:05:27.393Z,68.34
2018-01-13T06:08:00.683Z,68.44
2018-01-13T06:10:34.206Z,67.93
2018-01-13T06:13:07.289Z,67.83
2018-01-13T06:15:40.591Z,67.89
2018-01-13T06:18:13.346Z,67.13
2018-01-13T06:20:48.624Z,66.94
2018-01-13T06:23:21.543Z,66.96
2018-01-13T06:25:55.296Z,67.98
2018-01-13T06:28:28.153Z,70.08
2018-01-13T06:31:05.178Z,69.08
2018-01-13T06:33:38.540Z,67.81
2018-01-13T06:36:12.147Z,68.54
2018-01-13T06:38:45.669Z,67.49
2018-01-13T06:41:18.304Z,67.77
2018-01-13T06:43:51.502Z,67.36
2018-01-13T06:46:24.482Z,67.49
2018-01-13T06:48:58.017Z,67.46
2018-01-13T06:51:30.565Z,67.77
2018-01-13T06:54:03.386Z,67.20
2018-01-13T06:56:36.740Z,68.31
2018-01-13T06:59:09.280Z,67.69
2018-01-13T07:01:42.200Z,66.79
2018-01-13T07:04:15.162Z,67.77
2018-01-13T07:06:48.031Z,67.53
2018-01-13T07:09:21.699Z,68.24
2018-01-13T07:11:54.442Z,67.80
2018-01-13T07:14:28.347Z,67.99
2018-01-13T07:17:00.849Z,67.66
2018-01-13T07:19:34.133Z,67.61
2018-01-13T07:22:06.968Z,68.00
2018-01-13T07:24:39.709Z,68.60
2018-01-13T07:27:13.373Z,67.99
2018-01-13T07:29:45.910Z,67.86
2018-01-13T07:32:19.538Z,68.73
2018-01-13T07:34:52.293Z,71.81
2018-01-13T07:37:24.914Z,68.74
2018-01-13T07:39:59.433Z,68.40
2018-01-13T07:42:33.176Z,67.52
2018-01-13T07:45:05.700Z,66.69
2018-01-13T07:47:38.529Z,68.17
2018-01-13T07:50:11.819Z,67.12
2018-01-13T07:52:44.636Z,67.53
2018-01-13T07:55:18.459Z,67.42
2018-01-13T07:57:51.001Z,67.39
2018-01-13T08:00:23.526Z,67.03
2018-01-13T08:02:56.348Z,67.67
2018-01-13T08:05:29.152Z,67.08
2018-01-13T08:08:01.870Z,67.91
2018-01-13T08:10:34.534Z,68.52
2018-01-13T08:13:07.288Z,67.00
2018-01-13T08:15:39.939Z,67.55
2018-01-13T08:18:12.886Z,67.02
2018-01-13T08:20:45.521Z,67.02
2018-01-13T08:23:18.148Z,66.78
2018-01-13T08:25:50.900Z,66.11
2018-01-13T08:28:23.627Z,66.59
2018-01-13T08:30:57.679Z,66.40
2018-01-13T08:33:30.229Z,66.99
2018-01-13T08:36:03.099Z,66.73
2018-01-13T08:38:35.712Z,66.83
2018-01-13T08:41:08.360Z,66.86
2018-01-13T08:43:41.003Z,66.94
2018-01-13T08:46:13.933Z,66.92
2018-01-13T08:48:47.353Z,66.39
2018-01-13T08:51:19.899Z,66.16
2018-01-13T08:53:52.624Z,66.05
2018-01-13T08:56:25.191Z,67.23
2018-01-13T08:58:58.919Z,66.45
2018-01-13T09:01:32.487Z,67.19
2018-01-13T09:04:05.403Z,67.41
2018-01-13T09:06:38.451Z,67.18
2018-01-13T09:09:11.212Z,66.39
2018-01-13T09:11:44.245Z,67.18
2018-01-13T09:14:16.907Z,67.72
2018-01-13T09:16:49.563Z,67.40
2018-01-13T09:19:23.410Z,66.70
2018-01-13T09:21:56.160Z,68.08
2018-01-13T09:24:28.816Z,67.58
2018-01-13T09:27:01.461Z,67.02
2018-01-13T09:29:34.001Z,68.46
2018-01-13T09:32:06.753Z,67.70
2018-01-13T09:34:39.604Z,66.26
2018-01-13T09:37:12.379Z,66.30
2018-01-13T09:39:44.922Z,67.32
2018-01-13T09:42:17.560Z,67.14
2018-01-13T09:44:50.228Z,67.02
2018-01-13T09:47:22.852Z,65.52
2018-01-13T09:49:55.525Z,67.25
2018-01-13T09:52:28.132Z,67.22
2018-01-13T09:55:00.798Z,66.25
2018-01-13T09:57:33.423Z,66.02
2018-01-13T10:00:06.074Z,66.54
2018-01-13T10:02:38.804Z,66.23
2018-01-13T10:05:11.491Z,66.40
2018-01-13T10:07:44.000Z,67.47
2018-01-13T10:10:16.767Z,67.00
2018-01-13T10:12:50.409Z,67.59
2018-01-13T10:15:23.092Z,69.16
2018-01-13T10:17:55.917Z,69.14
2018-01-13T10:20:28.585Z,67.26
2018-01-13T10:23:01.077Z,68.14
2018-01-13T10:25:33.600Z,68.87
2018-01-13T10:28:06.102Z,66.83
2018-01-13T10:30:38.943Z,66.36
2018-01-13T10:33:15.986Z,66.64
2018-01-13T10:35:48.620Z,65.21
2018-01-13T10:38:21.310Z,65.75
2018-01-13T10:40:53.997Z,65.57
2018-01-13T10:43:26.737Z,66.53
2018-01-13T10:45:59.666Z,65.36
2018-01-13T10:48:32.283Z,65.93
2018-01-13T10:51:04.842Z,66.37
2018-01-13T10:53:37.385Z,65.53
2018-01-13T10:56:10.151Z,65.74
2018-01-13T10:58:42.679Z,65.28
2018-01-13T11:01:15.449Z,65.24
2018-01-13T11:03:48.082Z,66.65
2018-01-13T11:06:20.636Z,66.70
2018-01-13T11:08:53.171Z,67.59
2018-01-13T11:11:26.954Z,67.83
2018-01-13T11:13:59.694Z,67.02
2018-01-13T11:16:32.259Z,65.95
2018-01-13T11:19:05.984Z,66.78
2018-01-13T11:21:39.529Z,66.45
2018-01-13T11:24:12.286Z,67.04
2018-01-13T11:26:45.124Z,65.93
2018-01-13T11:29:17.848Z,66.66
2018-01-13T11:31:51.407Z,67.11
2018-01-13T11:34:24.040Z,67.20
2018-01-13T11:36:57.861Z,66.41
2018-01-13T11:39:31.230Z,67.49
2018-01-13T11:42:04.384Z,66.95
2018-01-13T11:44:38.133Z,67.44
2018-01-13T11:47:10.666Z,66.87
2018-01-13T11:49:43.799Z,67.07
2018-01-13T11:52:16.461Z,67.77
2018-01-13T11:54:50.003Z,66.74
2018-01-13T11:57:22.659Z,66.29
2018-01-13T11:59:55.168Z,65.15
2018-01-13T12:02:28.038Z,65.67
2018-01-13T12:05:03.650Z,65.02
2018-01-13T12:07:36.468Z,66.77
2018-01-13T12:10:10.003Z,66.14
2018-01-13T12:12:42.778Z,65.73
2018-01-13T12:15:15.280Z,68.07
2018-01-13T12:17:48.744Z,68.60
2018-01-13T12:20:21.389Z,68.02
2018-01-13T12:22:54.986Z,66.86
2018-01-13T12:25:27.780Z,66.16
2018-01-13T12:28:01.381Z,66.20
2018-01-13T12:30:34.817Z,66.37
2018-01-13T12:33:07.442Z,66.50
2018-01-13T12:35:40.025Z,65.54
2018-01-13T12:38:12.575Z,66.44
2018-01-13T12:40:45.657Z,65.65
2018-01-13T12:43:18.223Z,67.67
2018-01-13T12:45:50.811Z,65.96
2018-01-13T12:48:23.341Z,66.08
2018-01-13T12:50:55.896Z,66.12
2018-01-13T12:53:28.471Z,65.72
2018-01-13T12:56:01.336Z,66.38
2018-01-13T12:58:34.256Z,66.25
2018-01-13T13:01:07.788Z,65.01
2018-01-13T13:03:40.429Z,65.60
2018-01-13T13:06:13.086Z,65.50
2018-01-13T13:08:45.588Z,65.36
2018-01-13T13:11:18.626Z,65.84
2018-01-13T13:13:51.254Z,66.17
2018-01-13T13:16:23.920Z,65.45
2018-01-13T13:18:57.671Z,64.58
2018-01-13T13:21:30.424Z,64.37
2018-01-13T13:24:02.948Z,64.73
2018-01-13T13:26:35.597Z,65.40
2018-01-13T13:29:09.246Z,64.78
2018-01-13T13:31:41.891Z,65.66
2018-01-13T13:34:14.512Z,65.57
2018-01-13T13:36:47.145Z,65.30
2018-01-13T13:39:19.678Z,65.92
2018-01-13T13:41:53.025Z,65.04
2018-01-13T13:44:26.168Z,63.99
2018-01-13T13:46:58.822Z,65.19
2018-01-13T13:49:31.636Z,64.80
2018-01-13T13:52:05.855Z,64.92
2018-01-13T13:54:38.371Z,64.50
2018-01-13T13:57:11.325Z,63.88
2018-01-13T13:59:50.347Z,63.84
2018-01-13T14:02:17.519Z,64.67
2018-01-13T14:04:50.146Z,65.89
2018-01-13T14:07:22.831Z,64.57
2018-01-13T14:09:55.476Z,63.63
2018-01-13T14:12:28.115Z,65.18
2018-01-13T14:15:00.734Z,64.91
2018-01-13T14:17:33.690Z,65.00
2018-01-13T14:20:06.319Z,64.16
2018-01-13T14:22:39.050Z,64.23
2018-01-13T14:25:11.564Z,64.88
2018-01-13T14:27:44.092Z,63.87
2018-01-13T14:30:16.960Z,63.99
2018-01-13T14:32:50.627Z,64.02
2018-01-13T14:35:23.448Z,63.17
2018-01-13T14:37:56.296Z,62.94
2018-01-13T14:40:28.847Z,62.73
2018-01-13T14:43:01.472Z,62.67
2018-01-13T14:45:33.988Z,62.83
2018-01-13T14:48:06.647Z,62.56
2018-01-13T14:50:40.155Z,63.53
2018-01-13T14:53:12.823Z,63.86
2018-01-13T14:55:45.543Z,63.77
2018-01-13T14:58:18.172Z,62.10
2018-01-13T15:00:53.719Z,61.88
2018-01-13T15:03:26.377Z,62.79
2018-01-13T15:05:58.951Z,62.98
2018-01-13T15:08:31.528Z,62.93
2018-01-13T15:11:04.174Z,62.17
2018-01-13T15:13:37.046Z,61.15
2018-01-13T15:16:09.603Z,61.67
2018-01-13T15:18:42.631Z,62.35
2018-01-13T15:21:15.471Z,62.06
2018-01-13T15:23:48.420Z,62.69
2018-01-13T15:26:21.042Z,61.05
2018-01-13T15:28:54.716Z,62.60
2018-01-13T15:31:27.590Z,61.29
2018-01-13T15:34:00.527Z,62.11
2018-01-13T15:36:33.285Z,63.11
2018-01-13T15:39:07.314Z,61.54
2018-01-13T15:41:40.584Z,61.59
2018-01-13T15:44:14.242Z,62.58
2018-01-13T15:46:47.014Z,61.33
2018-01-13T15:49:19.752Z,61.14
2018-01-13T15:51:52.449Z,62.34
2018-01-13T15:54:25.099Z,61.94
2018-01-13T15:59:37.390Z,61.86
2018-01-13T16:02:10.025Z,61.31
2018-01-13T16:04:43.628Z,61.47
2018-01-13T16:07:16.546Z,62.31
2018-01-13T16:09:49.248Z,62.14
2018-01-13T16:12:22.000Z,61.86
2018-01-13T16:14:54.851Z,61.22
2018-01-13T16:17:27.736Z,62.37
2018-01-13T16:20:00.487Z,60.91
2018-01-13T16:22:33.072Z,60.97
2018-01-13T16:25:05.599Z,61.52
2018-01-13T16:27:38.236Z,60.50
2018-01-13T16:30:10.893Z,61.58
2018-01-13T16:32:43.556Z,60.47
2018-01-13T16:35:16.200Z,60.81
2018-01-13T16:37:48.735Z,60.50
2018-01-13T16:40:21.353Z,59.41
2018-01-13T16:42:53.868Z,60.12
2018-01-13T16:45:26.670Z,59.60
2018-01-13T16:48:00.145Z,59.09
2018-01-13T16:50:32.871Z,58.57
2018-01-13T16:53:05.532Z,60.46
2018-01-13T16:55:38.142Z,59.76
2018-01-13T16:58:10.909Z,60.89
2018-01-13T17:00:43.530Z,59.68
2018-01-13T17:03:16.333Z,59.20
2018-01-13T17:05:49.906Z,59.22
2018-01-13T17:08:22.580Z,59.52
2018-01-13T17:10:55.320Z,60.74
2018-01-13T17:13:27.973Z,60.30
2018-01-13T17:16:00.708Z,59.76
2018-01-13T17:18:33.564Z,59.23
2018-01-13T17:21:06.199Z,57.97
2018-01-13T17:23:38.882Z,58.30
2018-01-13T17:26:11.377Z,59.06
2018-01-13T17:28:44.137Z,59.59
2018-01-13T17:31:16.638Z,59.04
2018-01-13T17:33:50.117Z,58.69
2018-01-13T17:36:23.734Z,58.14
2018-01-13T17:38:57.627Z,58.75
2018-01-13T17:41:30.286Z,58.98
2018-01-13T17:44:02.863Z,58.41
2018-01-13T17:46:35.348Z,57.75
2018-01-13T17:49:09.323Z,58.26
2018-01-13T17:51:41.948Z,57.91
2018-01-13T17:54:14.621Z,58.60
2018-01-13T17:56:47.174Z,57.95
2018-01-13T17:59:20.938Z,58.35
2018-01-13T18:01:54.440Z,57.82
2018-01-13T18:04:27.273Z,58.91
2018-01-13T18:07:00.788Z,58.90
2018-01-13T18:09:33.542Z,58.34
2018-01-13T18:12:07.211Z,56.67
2018-01-13T18:14:39.880Z,58.74
2018-01-13T18:17:12.408Z,57.88
2018-01-13T18:19:45.046Z,57.82
2018-01-13T18:22:18.861Z,58.82
2018-01-13T18:24:51.490Z,58.94
2018-01-13T18:27:24.036Z,57.27
2018-01-13T18:29:56.772Z,58.23
2018-01-13T18:32:29.486Z,56.52
2018-01-13T18:35:02.225Z,56.99
2018-01-13T18:37:34.976Z,57.68
2018-01-13T18:40:07.748Z,58.11
2018-01-13T18:42:40.427Z,58.21
2018-01-13T18:45:13.103Z,57.35
2018-01-13T18:47:45.948Z,57.78
2018-01-13T18:50:18.670Z,58.79
2018-01-13T18:52:51.513Z,58.00
2018-01-13T18:55:24.981Z,58.94
2018-01-13T18:57:58.859Z,57.53
2018-01-13T19:00:31.554Z,57.91
2018-01-13T19:03:04.272Z,57.71
2018-01-13T19:05:36.918Z,57.05
2018-01-13T19:08:09.431Z,57.43
2018-01-13T19:10:42.271Z,55.78
2018-01-13T19:13:14.814Z,56.41
2018-01-13T19:15:47.432Z,57.04
2018-01-13T19:18:20.383Z,56.94
2018-01-13T19:20:52.994Z,57.69
2018-01-13T19:23:25.776Z,56.99
2018-01-13T19:25:58.426Z,56.94
2018-01-13T19:28:31.065Z,57.20
2018-01-13T19:31:03.927Z,57.50
2018-01-13T19:33:37.418Z,57.67
2018-01-13T19:36:09.978Z,56.37
2018-01-13T19:38:42.793Z,56.52
2018-01-13T19:41:16.358Z,56.87
2018-01-13T19:43:49.024Z,56.83
2018-01-13T19:46:21.779Z,57.49
2018-01-13T19:48:55.576Z,56.67
2018-01-13T19:51:28.231Z,56.89
2018-01-13T19:54:01.084Z,54.66
2018-01-13T19:56:33.829Z,56.56
2018-01-13T19:59:07.781Z,56.65
2018-01-13T20:01:40.296Z,56.63
2018-01-13T20:04:13.045Z,56.07
2018-01-13T20:06:45.701Z,56.65
2018-01-13T20:09:18.452Z,56.12
2018-01-13T20:11:51.067Z,55.97
2018-01-13T20:14:23.804Z,57.42
2018-01-13T20:16:57.643Z,55.28
2018-01-13T20:19:30.516Z,55.89
2018-01-13T20:22:03.038Z,55.23
2018-01-13T20:24:35.766Z,55.41
2018-01-13T20:27:08.400Z,54.91
2018-01-13T20:29:42.060Z,55.55
2018-01-13T20:32:14.781Z,55.58
2018-01-13T20:34:47.412Z,56.27
2018-01-13T20:37:20.048Z,54.10
2018-01-13T20:39:52.865Z,54.88
2018-01-13T20:42:25.600Z,54.58
2018-01-13T20:44:58.382Z,55.10
2018-01-13T20:47:31.835Z,54.48
2018-01-13T20:50:04.495Z,54.20
2018-01-13T20:52:37.117Z,55.59
2018-01-13T20:55:09.755Z,53.42
2018-01-13T20:57:42.805Z,54.84
2018-01-13T21:00:15.466Z,55.16
2018-01-13T21:02:48.178Z,54.04
2018-01-13T21:05:20.932Z,55.83
2018-01-13T21:07:53.553Z,55.06
2018-01-13T21:10:26.770Z,55.33
2018-01-13T21:13:00.192Z,55.21
2018-01-13T21:15:32.938Z,55.26
2018-01-13T21:18:05.660Z,54.60
2018-01-13T21:20:38.922Z,55.76
2018-01-13T21:23:12.316Z,55.44
2018-01-13T21:25:45.746Z,55.40
2018-01-13T21:28:18.382Z,53.52
2018-01-13T21:30:51.127Z,54.50
2018-01-13T21:33:24.805Z,54.39
2018-01-13T21:35:57.512Z,55.02
2018-01-13T21:38:30.193Z,55.07
2018-01-13T21:41:02.843Z,55.59
2018-01-13T21:43:35.589Z,54.48
2018-01-13T21:46:08.113Z,54.97
2018-01-13T21:48:40.948Z,54.77
2018-01-13T21:51:13.497Z,53.97
2018-01-13T21:53:46.045Z,54.63
2018-01-13T21:56:18.584Z,54.77
2018-01-13T21:58:52.117Z,54.92
2018-01-13T22:01:25.749Z,54.44
2018-01-13T22:03:58.397Z,55.57
2018-01-13T22:06:31.290Z,54.84
2018-01-13T22:09:03.843Z,54.79
2018-01-13T22:11:37.872Z,54.87
2018-01-13T22:14:10.779Z,55.63
2018-01-13T22:16:43.307Z,54.84
2018-01-13T22:19:16.951Z,54.19
2018-01-13T22:21:49.775Z,55.26
2018-01-13T22:24:22.387Z,54.01
2018-01-13T22:26:55.173Z,53.64
2018-01-13T22:29:30.228Z,54.91
2018-01-13T22:32:03.525Z,54.37
2018-01-13T22:34:36.165Z,53.97
2018-01-13T22:37:08.828Z,54.68
2018-01-13T22:39:41.671Z,55.03
2018-01-13T22:42:14.339Z,54.74
2018-01-13T22:44:46.936Z,53.71
2018-01-13T22:47:19.454Z,55.01
2018-01-13T22:49:52.220Z,54.30
2018-01-13T22:52:25.028Z,55.46
2018-01-13T22:54:57.712Z,55.49
2018-01-13T22:57:31.214Z,55.22
2018-01-13T23:00:03.959Z,55.14
2018-01-13T23:02:36.511Z,53.01
2018-01-13T23:05:09.083Z,54.63
2018-01-13T23:07:42.716Z,53.85
2018-01-13T23:10:15.277Z,53.63
2018-01-13T23:12:48.122Z,53.99
2018-01-13T23:15:20.868Z,53.45
2018-01-13T23:17:54.470Z,52.22
2018-01-13T23:20:27.183Z,53.56
2018-01-13T23:22:59.826Z,53.55
2018-01-13T23:25:32.581Z,53.27
2018-01-13T23:28:05.303Z,53.74
2018-01-13T23:30:37.937Z,54.66
2018-01-13T23:33:10.687Z,54.06
2018-01-13T23:35:43.352Z,54.06
2018-01-13T23:38:16.993Z,53.42
2018-01-13T23:40:49.583Z,53.01
2018-01-13T23:43:22.077Z,54.08
2018-01-13T23:45:55.016Z,52.69
2018-01-13T23:48:27.831Z,52.47
2018-01-13T23:51:00.424Z,51.63
2018-01-13T23:53:32.945Z,51.70
2018-01-13T23:56:05.598Z,54.29
2018-01-13T23:58:38.104Z,52.19
